Terminal Aerodrome Forecast
Issued by NWS

Home | Current Version | Previous Version | Text Only | Print | Product List | Glossary On
Versions: 1 2 3 4 5 6 7 8 9 10 11 12 13
000
FTUS46 KPDT 251720
TAFYKM
TAF
KYKM 251720Z 2518/2618 VRB05KT P6SM SCT200
     FM260100 26006KT P6SM FEW060 BKN150
     FM260600 26007KT P6SM OVC050
     FM261300 VRB06KT 3SM -SHSN BR OVC020=

USA.gov is the U.S. government's official web portal to all federal, state and local government web resources and services.